createdAt,value
2019-05-15T00:00:11.942Z,10.68
2019-05-15T00:02:40.502Z,9.63
2019-05-15T00:05:09.806Z,10.13
2019-05-15T00:07:39.729Z,7.80
2019-05-15T00:10:09.058Z,7.53
2019-05-15T00:12:39.556Z,9.08
2019-05-15T00:15:09.652Z,11.38
2019-05-15T00:17:39.323Z,7.00
2019-05-15T00:20:13.740Z,8.77
2019-05-15T00:22:42.322Z,7.90
2019-05-15T00:25:12.478Z,11.80
2019-05-15T00:27:41.058Z,12.83
2019-05-15T00:30:13.022Z,10.90
2019-05-15T00:32:41.606Z,9.10
2019-05-15T00:35:11.766Z,9.03
2019-05-15T00:37:40.358Z,8.70
2019-05-15T00:40:09.188Z,9.93
2019-05-15T00:42:41.670Z,9.80
2019-05-15T00:45:10.894Z,12.23
2019-05-15T00:47:40.883Z,10.17
2019-05-15T00:50:10.423Z,9.40
2019-05-15T00:52:42.070Z,8.17
2019-05-15T00:58:01.371Z,11.07
2019-05-15T01:00:43.012Z,11.03
2019-05-15T01:03:11.770Z,9.90
2019-05-15T01:05:41.917Z,9.23
2019-05-15T01:08:10.492Z,9.47
2019-05-15T01:10:39.324Z,9.30
2019-05-15T01:13:08.640Z,9.23
2019-05-15T01:15:39.264Z,10.30
2019-05-15T01:18:09.598Z,11.43
2019-05-15T01:20:39.091Z,9.93
2019-05-15T01:23:08.860Z,9.03
2019-05-15T01:25:39.195Z,13.30
2019-05-15T01:28:10.554Z,13.50
2019-05-15T01:30:40.993Z,11.50
2019-05-15T01:33:09.618Z,11.80
2019-05-15T01:35:43.110Z,10.27
2019-05-15T01:38:11.675Z,9.93
2019-05-15T01:40:41.661Z,11.30
2019-05-15T01:43:10.196Z,11.70
2019-05-15T01:45:41.038Z,14.20
2019-05-15T01:48:09.547Z,11.20
2019-05-15T01:50:39.270Z,11.23
2019-05-15T01:53:10.496Z,10.73
2019-05-15T01:55:40.526Z,11.23
2019-05-15T01:58:09.389Z,11.55
2019-05-15T02:00:39.220Z,10.32
2019-05-15T02:03:09.730Z,12.23
2019-05-15T02:05:40.490Z,11.70
2019-05-15T02:08:11.300Z,9.63
2019-05-15T02:10:39.764Z,10.27
2019-05-15T02:13:11.192Z,10.07
2019-05-15T02:15:39.856Z,11.77
2019-05-15T02:18:08.607Z,8.87
2019-05-15T02:20:38.935Z,10.40
2019-05-15T02:23:11.523Z,12.03
2019-05-15T02:25:43.829Z,10.27
2019-05-15T02:28:12.393Z,9.65
2019-05-15T02:30:41.202Z,11.77
2019-05-15T02:33:11.281Z,10.27
2019-05-15T02:35:39.977Z,11.77
2019-05-15T02:38:14.726Z,12.43
2019-05-15T02:40:41.084Z,15.33
2019-05-15T02:43:11.461Z,9.43
2019-05-15T02:45:41.812Z,14.17
2019-05-15T02:48:13.311Z,11.30
2019-05-15T02:50:41.808Z,16.83
2019-05-15T02:53:11.598Z,10.37
2019-05-15T02:55:40.624Z,12.23
2019-05-15T02:58:10.929Z,11.00
2019-05-15T03:00:47.233Z,13.73
2019-05-15T03:03:10.278Z,16.83
2019-05-15T03:05:42.576Z,13.48
2019-05-15T03:08:11.102Z,17.67
2019-05-15T03:10:41.121Z,11.40
2019-05-15T03:13:10.230Z,13.80
2019-05-15T03:15:43.045Z,12.03
2019-05-15T03:18:14.715Z,14.20
2019-05-15T03:20:44.713Z,12.70
2019-05-15T03:23:19.818Z,12.75
2019-05-15T03:25:49.494Z,10.88
2019-05-15T03:28:19.065Z,14.87
2019-05-15T03:31:15.512Z,12.40
2019-05-15T03:33:35.807Z,12.80
2019-05-15T03:36:03.095Z,13.37
2019-05-15T03:38:33.514Z,12.43
2019-05-15T03:41:02.062Z,12.00
2019-05-15T03:43:33.364Z,11.70
2019-05-15T03:46:03.444Z,15.57
2019-05-15T03:48:34.841Z,13.80
2019-05-15T03:51:03.536Z,13.23
2019-05-15T03:53:33.097Z,13.03
2019-05-15T03:56:04.232Z,13.87
2019-05-15T03:58:34.264Z,11.47
2019-05-15T04:01:02.724Z,12.23
2019-05-15T04:03:32.201Z,13.28
2019-05-15T04:06:00.827Z,12.43
2019-05-15T04:08:34.129Z,10.03
2019-05-15T04:11:04.856Z,12.17
2019-05-15T04:13:33.344Z,13.50
2019-05-15T04:16:01.945Z,13.97
2019-05-15T04:18:30.525Z,11.07
2019-05-15T04:21:00.526Z,11.30
2019-05-15T04:23:30.548Z,11.70
2019-05-15T04:25:59.408Z,14.93
2019-05-15T04:28:29.813Z,14.53
2019-05-15T04:30:59.885Z,11.83
2019-05-15T04:33:29.610Z,12.13
2019-05-15T04:35:59.297Z,9.63
2019-05-15T04:38:32.370Z,9.98
2019-05-15T04:41:01.092Z,13.57
2019-05-15T04:46:19.666Z,14.53
2019-05-15T04:48:50.336Z,11.80
2019-05-15T04:51:24.934Z,11.20
2019-05-15T04:53:53.377Z,12.88
2019-05-15T04:56:21.919Z,10.97
2019-05-15T04:58:51.143Z,13.60
2019-05-15T05:01:20.322Z,12.70
2019-05-15T05:03:49.737Z,16.27
2019-05-15T05:06:21.740Z,9.77
2019-05-15T05:08:51.904Z,11.13
2019-05-15T05:11:23.923Z,9.75
2019-05-15T05:13:53.219Z,12.70
2019-05-15T05:16:24.276Z,11.20
2019-05-15T05:18:59.248Z,11.10
2019-05-15T05:21:30.540Z,10.27
2019-05-15T05:23:59.159Z,10.97
2019-05-15T05:26:29.456Z,8.17
2019-05-15T05:29:01.321Z,15.10
2019-05-15T05:31:29.588Z,8.30
2019-05-15T05:33:59.034Z,9.50
2019-05-15T05:36:28.043Z,11.03
2019-05-15T05:38:58.432Z,9.57
2019-05-15T05:41:28.092Z,7.93
2019-05-15T05:44:00.018Z,10.07
2019-05-15T05:46:28.533Z,7.20
2019-05-15T05:48:58.387Z,7.93
2019-05-15T05:51:28.152Z,7.73
2019-05-15T05:53:59.017Z,5.83
2019-05-15T05:56:30.735Z,6.40
2019-05-15T05:58:59.230Z,6.33
2019-05-15T06:01:31.978Z,7.43
2019-05-15T06:04:02.088Z,7.57
2019-05-15T06:06:30.602Z,7.20
2019-05-15T06:09:01.123Z,7.20
2019-05-15T06:11:29.413Z,8.03
2019-05-15T06:13:58.464Z,6.00
2019-05-15T06:16:29.795Z,10.40
2019-05-15T06:19:03.359Z,8.00
2019-05-15T06:21:31.865Z,7.00
2019-05-15T06:24:05.384Z,7.67
2019-05-15T06:26:34.501Z,8.00
2019-05-15T06:29:03.143Z,12.23
2019-05-15T06:31:31.661Z,6.77
2019-05-15T06:34:19.500Z,10.07
2019-05-15T06:36:49.512Z,9.23
2019-05-15T06:39:18.058Z,6.97
2019-05-15T06:41:48.440Z,7.80
2019-05-15T06:44:18.763Z,5.63
2019-05-15T06:46:48.560Z,7.43
2019-05-15T06:49:21.020Z,7.10
2019-05-15T06:51:49.578Z,5.73
2019-05-15T06:54:19.676Z,6.45
2019-05-15T06:56:49.320Z,8.13
2019-05-15T06:59:20.917Z,4.50
2019-05-15T07:01:51.173Z,5.10
2019-05-15T07:04:19.648Z,7.43
2019-05-15T07:06:52.438Z,5.70
2019-05-15T07:09:23.956Z,7.10
2019-05-15T07:11:53.693Z,7.90
2019-05-15T07:14:25.268Z,6.97
2019-05-15T07:16:53.857Z,7.00
2019-05-15T07:19:22.309Z,11.65
2019-05-15T07:21:50.817Z,13.23
2019-05-15T07:24:19.469Z,7.00
2019-05-15T07:26:50.770Z,5.67
2019-05-15T07:29:20.691Z,6.70
2019-05-15T07:31:49.189Z,7.90
2019-05-15T07:34:20.581Z,5.53
2019-05-15T07:36:51.368Z,8.77
2019-05-15T07:39:19.895Z,4.10
2019-05-15T07:41:52.186Z,4.40
2019-05-15T07:44:20.789Z,5.10
2019-05-15T07:46:52.113Z,2.77
2019-05-15T07:49:20.752Z,3.23
2019-05-15T07:51:50.839Z,4.77
2019-05-15T07:54:19.471Z,4.97
2019-05-15T07:56:50.742Z,5.70
2019-05-15T07:59:19.240Z,8.10
2019-05-15T08:01:49.110Z,2.83
2019-05-15T08:04:26.197Z,3.63
2019-05-15T08:06:49.049Z,4.73
2019-05-15T08:09:18.031Z,3.07
2019-05-15T08:11:48.594Z,5.00
2019-05-15T08:14:19.360Z,4.10
2019-05-15T08:16:48.516Z,2.53
2019-05-15T08:19:18.416Z,2.63
2019-05-15T08:21:51.631Z,3.37
2019-05-15T08:24:21.168Z,2.20
2019-05-15T08:26:49.665Z,3.37
2019-05-15T08:29:21.814Z,2.07
2019-05-15T08:31:52.260Z,1.70
2019-05-15T08:34:20.738Z,2.53
2019-05-15T08:36:49.955Z,4.05
2019-05-15T08:39:21.336Z,2.17
2019-05-15T08:41:54.081Z,2.10
2019-05-15T08:44:22.718Z,2.70
2019-05-15T08:46:51.198Z,2.17
2019-05-15T08:49:20.562Z,3.80
2019-05-15T08:51:51.923Z,9.38
2019-05-15T08:54:21.519Z,1.55
2019-05-15T08:56:51.314Z,2.33
2019-05-15T08:59:19.862Z,2.50
2019-05-15T09:01:48.968Z,2.80
2019-05-15T09:04:34.619Z,2.47
2019-05-15T09:07:01.306Z,5.70
2019-05-15T09:09:30.170Z,3.87
2019-05-15T09:12:00.297Z,3.47
2019-05-15T09:14:32.674Z,4.07
2019-05-15T09:17:01.163Z,2.20
2019-05-15T09:19:29.792Z,1.02
2019-05-15T09:21:59.110Z,2.07
2019-05-15T09:24:28.805Z,4.30
2019-05-15T09:26:59.473Z,3.27
2019-05-15T09:29:29.308Z,1.25
2019-05-15T09:32:01.877Z,1.93
2019-05-15T09:34:46.697Z,1.37
2019-05-15T09:37:02.039Z,1.73
2019-05-15T09:39:32.883Z,2.10
2019-05-15T09:42:01.415Z,2.23
2019-05-15T09:44:30.306Z,1.10
2019-05-15T09:47:00.136Z,1.17
2019-05-15T09:49:31.107Z,1.60
2019-05-15T09:51:59.688Z,2.60
2019-05-15T09:54:29.377Z,5.30
2019-05-15T09:56:59.743Z,2.63
2019-05-15T09:59:29.543Z,1.63
2019-05-15T10:01:58.860Z,1.33
2019-05-15T10:04:33.292Z,1.83
2019-05-15T10:07:01.887Z,2.35
2019-05-15T10:09:35.995Z,1.52
2019-05-15T10:12:05.448Z,2.57
2019-05-15T10:14:38.575Z,1.57
2019-05-15T10:17:09.198Z,3.83
2019-05-15T10:19:37.530Z,1.15
2019-05-15T10:22:09.482Z,2.00
2019-05-15T10:24:38.013Z,2.07
2019-05-15T10:27:08.825Z,6.20
2019-05-15T10:29:38.657Z,2.70
2019-05-15T10:32:08.743Z,1.67
2019-05-15T10:34:38.519Z,1.27
2019-05-15T10:37:10.101Z,7.10
2019-05-15T10:39:38.601Z,1.47
2019-05-15T10:42:09.841Z,1.47
2019-05-15T10:44:42.737Z,3.60
2019-05-15T10:47:11.281Z,1.73
2019-05-15T10:49:44.158Z,3.10
2019-05-15T10:52:13.065Z,1.37
2019-05-15T10:54:41.759Z,5.17
2019-05-15T10:57:12.035Z,3.67
2019-05-15T10:59:42.433Z,1.10
2019-05-15T11:02:10.963Z,1.33
2019-05-15T11:04:40.567Z,5.97
2019-05-15T11:07:15.235Z,1.50
2019-05-15T11:09:43.669Z,2.20
2019-05-15T11:12:12.169Z,3.07
2019-05-15T11:14:43.589Z,2.80
2019-05-15T11:17:13.627Z,3.40
2019-05-15T11:19:43.285Z,3.50
2019-05-15T11:22:11.797Z,2.57
2019-05-15T11:24:40.337Z,1.10
2019-05-15T11:27:10.182Z,7.13
2019-05-15T11:29:40.022Z,2.90
2019-05-15T11:32:11.387Z,1.63
2019-05-15T11:34:40.424Z,2.47
2019-05-15T11:37:08.987Z,3.10
2019-05-15T11:39:46.290Z,2.50
2019-05-15T11:42:11.721Z,5.00
2019-05-15T11:44:41.507Z,2.23
2019-05-15T11:47:12.758Z,2.00
2019-05-15T11:49:41.401Z,2.02
2019-05-15T11:52:10.038Z,1.60
2019-05-15T11:54:41.452Z,3.60
2019-05-15T11:57:09.909Z,3.13
2019-05-15T11:59:44.836Z,2.67
2019-05-15T12:02:08.697Z,2.67
2019-05-15T12:04:38.396Z,3.67
2019-05-15T12:07:08.717Z,2.80
2019-05-15T12:09:38.731Z,4.12
2019-05-15T12:12:08.858Z,2.05
2019-05-15T12:14:38.901Z,4.40
2019-05-15T12:17:14.993Z,6.10
2019-05-15T12:19:39.126Z,2.77
2019-05-15T12:22:07.903Z,2.43
2019-05-15T12:24:37.768Z,3.40
2019-05-15T12:27:15.317Z,3.77
2019-05-15T12:29:39.828Z,5.00
2019-05-15T12:34:40.357Z,2.13
2019-05-15T12:37:09.951Z,4.47
2019-05-15T12:39:40.861Z,7.00
2019-05-15T12:59:52.137Z,2.70
2019-05-15T13:02:20.595Z,6.70
2019-05-15T13:04:49.136Z,3.30
2019-05-15T13:07:19.973Z,2.10
2019-05-15T13:09:48.775Z,2.23
2019-05-15T13:12:18.265Z,3.00
2019-05-15T13:14:48.361Z,3.83
2019-05-15T13:17:23.153Z,2.27
2019-05-15T13:19:51.725Z,2.80
2019-05-15T13:22:24.674Z,2.53
2019-05-15T13:24:52.509Z,3.40
2019-05-15T13:27:21.598Z,3.90
2019-05-15T13:29:51.259Z,4.37
2019-05-15T13:32:19.785Z,4.33
2019-05-15T13:34:51.257Z,2.92
2019-05-15T13:37:27.419Z,6.60
2019-05-15T13:39:50.087Z,2.87
2019-05-15T13:42:20.298Z,4.83
2019-05-15T13:44:48.859Z,3.07
2019-05-15T13:47:19.915Z,2.30
2019-05-15T13:49:48.479Z,2.40
2019-05-15T13:52:18.746Z,1.93
2019-05-15T13:54:48.597Z,1.80
2019-05-15T13:57:21.802Z,3.53
2019-05-15T13:59:50.657Z,6.03
2019-05-15T14:02:19.134Z,2.93
2019-05-15T14:04:49.038Z,2.47
2019-05-15T14:07:19.292Z,3.13
2019-05-15T14:09:48.286Z,2.73
2019-05-15T14:12:18.279Z,3.67
2019-05-15T14:14:48.592Z,4.70
2019-05-15T14:17:17.169Z,2.77
2019-05-15T14:19:45.735Z,3.40
2019-05-15T14:22:15.736Z,2.95
2019-05-15T14:24:44.562Z,5.50
2019-05-15T14:27:16.176Z,2.43
2019-05-15T14:29:48.818Z,3.43
2019-05-15T14:32:32.783Z,2.40
2019-05-15T14:34:50.879Z,2.03
2019-05-15T14:37:18.927Z,3.73
2019-05-15T14:39:52.040Z,4.75
2019-05-15T14:42:19.834Z,2.90
2019-05-15T14:44:48.573Z,3.70
2019-05-15T14:47:19.191Z,3.60
2019-05-15T14:49:49.446Z,2.63
2019-05-15T14:52:18.849Z,5.93
2019-05-15T14:54:48.981Z,2.33
2019-05-15T14:57:20.687Z,3.90
2019-05-15T14:59:50.316Z,2.27
2019-05-15T15:02:19.095Z,2.67
2019-05-15T15:04:48.563Z,3.33
2019-05-15T15:07:18.900Z,3.63
2019-05-15T15:09:47.851Z,2.15
2019-05-15T15:12:18.837Z,2.07
2019-05-15T15:14:48.600Z,2.30
2019-05-15T15:17:19.140Z,2.13
2019-05-15T15:19:51.614Z,6.50
2019-05-15T15:22:17.512Z,3.77
2019-05-15T15:24:49.959Z,3.30
2019-05-15T15:27:20.473Z,2.37
2019-05-15T15:29:50.026Z,2.30
2019-05-15T15:32:19.777Z,3.53
2019-05-15T15:34:48.359Z,2.20
2019-05-15T15:37:19.583Z,2.63
2019-05-15T15:39:49.470Z,3.37
2019-05-15T15:42:19.142Z,2.70
2019-05-15T15:44:48.858Z,3.60
2019-05-15T15:47:17.731Z,4.03
2019-05-15T15:49:48.012Z,4.53
2019-05-15T15:52:19.752Z,2.30
2019-05-15T15:54:48.274Z,2.07
2019-05-15T15:57:19.041Z,3.97
2019-05-15T15:59:49.999Z,7.37
2019-05-15T16:02:18.735Z,4.50
2019-05-15T16:04:48.437Z,2.13
2019-05-15T16:07:18.329Z,1.60
2019-05-15T16:09:48.309Z,2.50
2019-05-15T16:12:18.589Z,5.17
2019-05-15T16:14:48.811Z,2.30
2019-05-15T16:17:18.482Z,2.20
2019-05-15T16:19:49.159Z,1.93
2019-05-15T16:22:21.317Z,3.37
2019-05-15T16:24:50.450Z,5.95
2019-05-15T16:27:19.007Z,4.93
2019-05-15T16:29:48.524Z,3.23
2019-05-15T16:32:21.914Z,5.20
2019-05-15T16:34:55.153Z,5.17
2019-05-15T16:37:23.916Z,2.80
2019-05-15T16:39:52.527Z,3.40
2019-05-15T16:42:20.990Z,2.73
2019-05-15T16:44:53.433Z,2.27
2019-05-15T16:47:27.967Z,5.77
2019-05-15T16:49:57.980Z,4.70
2019-05-15T16:52:31.041Z,2.77
2019-05-15T16:54:59.803Z,5.55
2019-05-15T16:57:28.479Z,3.23
2019-05-15T16:59:59.038Z,3.90
2019-05-15T17:02:28.265Z,2.27
2019-05-15T17:04:59.210Z,3.17
2019-05-15T17:07:29.908Z,1.77
2019-05-15T17:09:58.702Z,1.77
2019-05-15T17:12:28.278Z,2.50
2019-05-15T17:14:58.527Z,1.90
2019-05-15T17:17:28.092Z,2.77
2019-05-15T17:19:57.910Z,1.60
2019-05-15T17:22:31.146Z,4.62
2019-05-15T17:24:59.900Z,3.63
2019-05-15T17:27:28.981Z,2.60
2019-05-15T17:29:58.869Z,2.03
2019-05-15T17:32:29.126Z,4.37
2019-05-15T17:34:58.858Z,2.00
2019-05-15T17:37:28.723Z,3.67
2019-05-15T17:39:58.916Z,3.73
2019-05-15T17:42:28.948Z,3.20
2019-05-15T17:45:01.194Z,2.80
2019-05-15T17:47:29.721Z,3.13
2019-05-15T17:50:01.155Z,2.58
2019-05-15T17:52:29.893Z,3.13
2019-05-15T17:54:59.296Z,2.53
2019-05-15T17:57:28.692Z,2.83
2019-05-15T17:59:59.029Z,2.30
2019-05-15T18:02:28.889Z,3.95
2019-05-15T18:04:59.002Z,4.10
2019-05-15T18:07:28.216Z,5.47
2019-05-15T18:09:59.196Z,2.90
2019-05-15T18:12:33.103Z,2.27
2019-05-15T18:15:02.126Z,2.60
2019-05-15T18:17:30.959Z,5.03
2019-05-15T18:19:59.573Z,2.07
2019-05-15T18:22:28.441Z,5.43
2019-05-15T18:24:58.068Z,3.23
2019-05-15T18:27:30.013Z,3.63
2019-05-15T18:29:59.536Z,2.90
2019-05-15T18:32:28.651Z,1.77
2019-05-15T18:34:59.856Z,4.70
2019-05-15T18:37:31.383Z,1.57
2019-05-15T18:40:06.412Z,2.13
2019-05-15T18:42:34.893Z,2.07
2019-05-15T18:45:05.349Z,3.50
2019-05-15T18:47:33.816Z,2.43
2019-05-15T18:50:08.718Z,2.67
2019-05-15T18:52:35.025Z,2.87
2019-05-15T18:55:08.230Z,4.37
2019-05-15T18:57:39.458Z,3.83
2019-05-15T19:00:09.892Z,3.13
2019-05-15T19:02:39.374Z,3.37
2019-05-15T19:05:09.092Z,10.60
2019-05-15T19:07:41.219Z,2.93
2019-05-15T19:10:11.417Z,1.97
2019-05-15T19:12:42.573Z,5.28
2019-05-15T19:15:13.203Z,4.57
2019-05-15T19:17:41.745Z,6.73
2019-05-15T19:20:11.311Z,4.20
2019-05-15T19:22:40.997Z,4.60
2019-05-15T19:25:10.884Z,6.67
2019-05-15T19:27:39.613Z,7.92
2019-05-15T19:30:10.478Z,7.17
2019-05-15T19:32:40.054Z,3.70
2019-05-15T19:35:10.256Z,4.43
2019-05-15T19:37:40.243Z,3.13
2019-05-15T19:40:10.695Z,4.37
2019-05-15T19:42:39.231Z,5.20
2019-05-15T19:45:08.900Z,5.17
2019-05-15T19:47:40.850Z,4.37
2019-05-15T19:50:10.134Z,4.57
2019-05-15T19:52:40.695Z,5.00
2019-05-15T19:55:09.292Z,4.23
2019-05-15T19:57:38.938Z,3.67
2019-05-15T20:00:11.108Z,6.03
2019-05-15T20:02:40.849Z,5.50
2019-05-15T20:05:12.933Z,3.87
2019-05-15T20:07:41.399Z,5.17
2019-05-15T20:10:12.350Z,2.97
2019-05-15T20:12:41.137Z,3.60
2019-05-15T20:15:11.085Z,4.43
2019-05-15T20:17:39.541Z,5.30
2019-05-15T20:20:09.213Z,5.07
2019-05-15T20:22:40.384Z,4.73
2019-05-15T20:25:08.817Z,4.47
2019-05-15T20:27:39.163Z,3.27
2019-05-15T20:30:08.797Z,3.50
2019-05-15T20:32:40.303Z,4.70
2019-05-15T20:35:09.122Z,2.87
2019-05-15T20:37:58.143Z,5.13
2019-05-15T20:40:42.239Z,3.40
2019-05-15T20:43:14.545Z,8.00
2019-05-15T20:45:43.102Z,3.93
2019-05-15T20:48:13.165Z,5.00
2019-05-15T20:50:41.908Z,3.30
2019-05-15T20:53:13.143Z,5.80
2019-05-15T20:55:41.860Z,2.70
2019-05-15T20:58:10.326Z,4.77
2019-05-15T21:00:41.108Z,3.50
2019-05-15T21:03:09.391Z,6.07
2019-05-15T21:05:38.292Z,6.60
2019-05-15T21:08:09.734Z,4.17
2019-05-15T21:10:42.776Z,4.45
2019-05-15T21:13:10.027Z,2.37
2019-05-15T21:15:38.700Z,3.50
2019-05-15T21:18:14.214Z,3.83
2019-05-15T21:20:39.857Z,4.45
2019-05-15T21:23:09.151Z,3.80
2019-05-15T21:25:39.287Z,4.87
2019-05-15T21:28:08.635Z,8.73
2019-05-15T21:30:37.894Z,5.23
2019-05-15T21:33:08.667Z,4.55
2019-05-15T21:35:39.350Z,5.40
2019-05-15T21:38:11.203Z,5.08
2019-05-15T21:40:41.730Z,3.70
2019-05-15T21:43:11.952Z,5.67
2019-05-15T21:45:40.525Z,4.43
2019-05-15T21:48:09.150Z,4.37
2019-05-15T21:50:38.915Z,5.23
2019-05-15T21:53:12.093Z,4.37
2019-05-15T21:55:43.412Z,4.70
2019-05-15T21:58:13.183Z,6.67
2019-05-15T22:00:45.347Z,6.73
2019-05-15T22:03:14.854Z,3.93
2019-05-15T22:05:43.376Z,4.10
2019-05-15T22:08:11.887Z,5.27
2019-05-15T22:10:41.615Z,5.13
2019-05-15T22:13:10.380Z,6.10
2019-05-15T22:15:41.604Z,6.30
2019-05-15T22:18:11.574Z,6.20
2019-05-15T22:20:40.490Z,6.87
2019-05-15T22:23:11.974Z,6.60
2019-05-15T22:25:41.505Z,8.03
2019-05-15T22:28:11.493Z,6.78
2019-05-15T22:33:28.250Z,5.90
2019-05-15T22:36:03.862Z,5.80
2019-05-15T22:38:36.754Z,8.53
2019-05-15T22:41:05.302Z,7.67
2019-05-15T22:43:34.914Z,6.40
2019-05-15T22:46:03.464Z,4.07
2019-05-15T22:48:34.766Z,5.53
2019-05-15T22:51:06.469Z,8.23
2019-05-15T22:53:35.076Z,7.53
2019-05-15T22:56:03.615Z,8.47
2019-05-15T22:58:33.792Z,7.00
2019-05-15T23:01:08.889Z,5.17
2019-05-15T23:03:39.579Z,9.53
2019-05-15T23:06:09.741Z,6.83
2019-05-15T23:08:39.456Z,6.80
2019-05-15T23:11:11.356Z,4.30
2019-05-15T23:13:40.012Z,8.80
2019-05-15T23:16:08.550Z,5.43
2019-05-15T23:18:38.006Z,7.28
2019-05-15T23:21:08.710Z,9.50
2019-05-15T23:23:39.981Z,12.33
2019-05-15T23:26:10.538Z,10.23
2019-05-15T23:28:40.266Z,17.27
2019-05-15T23:31:10.396Z,6.93
2019-05-15T23:33:41.532Z,8.77
2019-05-15T23:36:13.147Z,10.53
2019-05-15T23:38:48.023Z,7.40
2019-05-15T23:41:19.076Z,9.37
2019-05-15T23:43:48.427Z,9.23
2019-05-15T23:46:20.071Z,7.00
2019-05-15T23:48:48.774Z,6.92
2019-05-15T23:51:20.016Z,7.37
2019-05-15T23:53:48.730Z,10.83
2019-05-15T23:56:19.286Z,9.17
2019-05-15T23:58:53.754Z,8.63
